createdAt,value
2022-09-11T00:01:15.995Z,1.20
2022-09-11T00:03:44.308Z,1.70
2022-09-11T00:06:28.441Z,1.40
2022-09-11T00:09:02.098Z,1.50
2022-09-11T00:11:40.640Z,1.53
2022-09-11T00:14:08.572Z,1.60
2022-09-11T00:16:39.113Z,1.53
2022-09-11T00:19:09.321Z,1.43
2022-09-11T00:21:36.562Z,1.90
2022-09-11T00:24:03.936Z,1.77
2022-09-11T00:26:30.862Z,1.53
2022-09-11T00:28:57.793Z,1.40
2022-09-11T00:31:28.815Z,1.70
2022-09-11T00:33:56.580Z,1.40
2022-09-11T00:36:29.119Z,1.53
2022-09-11T00:38:56.350Z,1.80
2022-09-11T00:41:36.559Z,1.50
2022-09-11T00:44:28.945Z,1.93
2022-09-11T00:47:01.887Z,1.77
2022-09-11T00:49:34.168Z,1.60
2022-09-11T00:52:15.562Z,1.87
2022-09-11T00:55:11.654Z,1.83
2022-09-11T00:57:50.078Z,2.30
2022-09-11T01:00:17.017Z,2.00
2022-09-11T01:02:49.037Z,1.70
2022-09-11T01:05:16.593Z,2.20
2022-09-11T01:07:46.090Z,1.93
2022-09-11T01:10:13.503Z,1.73
2022-09-11T01:12:45.729Z,1.80
2022-09-11T01:15:22.618Z,2.00
2022-09-11T01:18:30.349Z,1.77
2022-09-11T01:21:05.886Z,1.67
2022-09-11T01:24:16.607Z,1.83
2022-09-11T01:27:12.251Z,1.60
2022-09-11T01:29:46.130Z,1.60
2022-09-11T01:32:24.115Z,1.90
2022-09-11T01:35:25.421Z,1.93
2022-09-11T01:37:57.456Z,1.47
2022-09-11T01:40:37.279Z,2.10
2022-09-11T01:43:12.811Z,1.80
2022-09-11T01:45:44.583Z,1.70
2022-09-11T01:48:15.047Z,1.80
2022-09-11T01:50:47.364Z,2.00
2022-09-11T01:53:17.636Z,1.50
2022-09-11T01:55:58.461Z,1.80
2022-09-11T01:58:30.563Z,1.70
2022-09-11T02:01:07.975Z,1.67
2022-09-11T02:03:39.251Z,1.67
2022-09-11T02:06:11.035Z,1.83
2022-09-11T02:08:53.052Z,1.70
2022-09-11T02:11:20.604Z,1.83
2022-09-11T02:14:07.719Z,1.70
2022-09-11T02:16:46.748Z,1.80
2022-09-11T02:19:16.833Z,1.73
2022-09-11T02:21:45.156Z,2.10
2022-09-11T02:24:11.914Z,2.53
2022-09-11T02:26:44.074Z,1.77
2022-09-11T02:29:11.748Z,2.03
2022-09-11T02:31:40.028Z,2.50
2022-09-11T02:34:06.943Z,1.93
2022-09-11T02:37:10.994Z,2.10
2022-09-11T02:40:13.177Z,2.20
2022-09-11T02:43:18.960Z,2.13
2022-09-11T02:46:09.238Z,2.10
2022-09-11T02:48:41.855Z,2.60
2022-09-11T02:51:34.144Z,2.70
2022-09-11T02:54:15.189Z,2.50
2022-09-11T02:56:44.988Z,2.40
2022-09-11T02:59:22.003Z,3.10
2022-09-11T03:01:51.966Z,2.50
2022-09-11T03:04:20.716Z,3.10
2022-09-11T03:06:49.291Z,2.70
2022-09-11T03:09:18.056Z,2.50
2022-09-11T03:11:45.490Z,3.40
2022-09-11T03:14:13.051Z,2.47
2022-09-11T03:16:40.864Z,2.97
2022-09-11T03:19:07.946Z,3.03
2022-09-11T03:21:35.127Z,2.90
2022-09-11T03:24:03.137Z,2.90
2022-09-11T03:26:30.015Z,3.60
2022-09-11T03:28:56.688Z,3.50
2022-09-11T03:31:23.417Z,4.10
2022-09-11T03:33:50.119Z,3.33
2022-09-11T03:36:16.836Z,3.40
2022-09-11T03:38:45.395Z,3.07
2022-09-11T03:41:12.144Z,3.33
2022-09-11T03:43:38.948Z,3.80
2022-09-11T03:46:06.251Z,3.97
2022-09-11T03:48:33.560Z,4.37
2022-09-11T03:51:00.292Z,3.60
2022-09-11T03:53:27.608Z,4.83
2022-09-11T03:55:54.797Z,4.40
2022-09-11T03:58:21.558Z,3.90
2022-09-11T04:00:48.378Z,5.00
2022-09-11T04:03:16.863Z,4.87
2022-09-11T04:05:55.099Z,4.97
2022-09-11T04:08:21.799Z,5.13
2022-09-11T04:10:48.481Z,5.77
2022-09-11T04:13:16.671Z,5.83
2022-09-11T04:15:43.330Z,6.53
2022-09-11T04:18:10.040Z,6.73
2022-09-11T04:20:39.878Z,7.13
2022-09-11T04:23:06.664Z,6.73
2022-09-11T04:25:33.357Z,7.73
2022-09-11T04:28:00.103Z,6.43
2022-09-11T04:30:26.893Z,6.40
2022-09-11T04:32:53.590Z,7.07
2022-09-11T04:35:20.317Z,6.13
2022-09-11T04:37:46.999Z,5.90
2022-09-11T04:40:13.806Z,7.20
2022-09-11T04:42:40.504Z,6.87
2022-09-11T04:45:07.649Z,5.90
2022-09-11T04:47:34.467Z,7.80
2022-09-11T04:50:01.995Z,6.33
2022-09-11T04:52:28.708Z,8.10
2022-09-11T04:54:55.416Z,6.97
2022-09-11T04:57:22.151Z,6.67
2022-09-11T04:59:50.765Z,7.07
2022-09-11T05:02:17.512Z,6.60
2022-09-11T05:04:44.268Z,6.60
2022-09-11T05:07:14.404Z,6.63
2022-09-11T05:09:41.146Z,6.40
2022-09-11T05:12:07.885Z,5.87
2022-09-11T05:14:35.856Z,6.33
2022-09-11T05:17:02.631Z,5.43
2022-09-11T05:19:29.463Z,6.10
2022-09-11T05:21:56.208Z,6.50
2022-09-11T05:24:22.888Z,6.40
2022-09-11T05:26:49.573Z,7.03
2022-09-11T05:29:16.829Z,6.77
2022-09-11T05:31:43.616Z,7.80
2022-09-11T05:34:10.409Z,7.00
2022-09-11T05:36:37.354Z,7.77
2022-09-11T05:39:04.626Z,6.20
2022-09-11T05:41:31.407Z,7.20
2022-09-11T05:43:58.960Z,7.43
2022-09-11T05:46:25.999Z,7.40
2022-09-11T05:48:52.721Z,6.80
2022-09-11T05:51:21.586Z,7.83
2022-09-11T05:53:58.633Z,8.20
2022-09-11T05:56:26.108Z,8.07
2022-09-11T05:58:53.279Z,7.83
2022-09-11T06:01:26.068Z,8.37
2022-09-11T06:03:53.701Z,7.20
2022-09-11T06:06:22.506Z,7.50
2022-09-11T06:08:50.185Z,6.60
2022-09-11T06:11:18.851Z,6.40
2022-09-11T06:13:47.348Z,6.50
2022-09-11T06:16:18.510Z,5.50
2022-09-11T06:18:49.250Z,6.50
2022-09-11T06:21:21.322Z,6.50
2022-09-11T06:23:50.007Z,6.57
2022-09-11T06:26:25.075Z,6.50
2022-09-11T06:28:53.524Z,5.80
2022-09-11T06:31:24.304Z,6.07
2022-09-11T06:33:51.317Z,7.03
2022-09-11T06:36:20.134Z,7.10
2022-09-11T06:38:47.358Z,7.57
2022-09-11T06:41:16.370Z,7.97
2022-09-11T06:43:44.176Z,7.83
2022-09-11T06:46:16.591Z,8.20
2022-09-11T06:48:47.717Z,8.13
2022-09-11T06:51:17.488Z,8.30
2022-09-11T06:53:45.263Z,8.33
2022-09-11T06:56:14.455Z,8.07
2022-09-11T06:58:41.561Z,9.00
2022-09-11T07:01:13.792Z,8.80
2022-09-11T07:03:45.286Z,9.43
2022-09-11T07:06:13.659Z,9.60
2022-09-11T07:08:40.423Z,9.30
2022-09-11T07:11:08.629Z,10.47
2022-09-11T07:13:38.229Z,9.80
2022-09-11T07:16:08.220Z,8.40
2022-09-11T07:18:46.132Z,9.73
2022-09-11T07:21:23.912Z,10.50
2022-09-11T07:23:54.493Z,10.00
2022-09-11T07:26:23.104Z,9.57
2022-09-11T07:28:51.484Z,9.73
2022-09-11T07:31:21.419Z,10.47
2022-09-11T07:33:49.721Z,9.90
2022-09-11T07:36:19.073Z,10.00
2022-09-11T07:38:47.822Z,9.77
2022-09-11T07:41:16.718Z,10.57
2022-09-11T07:43:48.197Z,9.97
2022-09-11T07:46:15.173Z,9.83
2022-09-11T07:48:45.040Z,10.17
2022-09-11T07:51:14.931Z,9.33
2022-09-11T07:53:46.448Z,9.10
2022-09-11T07:56:18.707Z,8.33
2022-09-11T07:58:45.834Z,8.87
2022-09-11T08:01:18.165Z,7.70
2022-09-11T08:03:45.957Z,7.93
2022-09-11T08:06:19.006Z,7.57
2022-09-11T08:08:53.774Z,8.00
2022-09-11T08:11:20.873Z,7.73
2022-09-11T08:13:51.014Z,7.23
2022-09-11T08:16:22.774Z,8.40
2022-09-11T08:18:49.951Z,6.93
2022-09-11T08:21:16.697Z,6.90
2022-09-11T08:23:45.003Z,6.40
2022-09-11T08:26:14.692Z,6.57
2022-09-11T08:28:45.402Z,6.53
2022-09-11T08:31:13.255Z,6.37
2022-09-11T08:33:40.445Z,6.00
2022-09-11T08:36:09.780Z,6.10
2022-09-11T08:38:37.776Z,6.40
2022-09-11T08:41:13.169Z,5.90
2022-09-11T08:43:50.827Z,6.50
2022-09-11T08:46:20.845Z,6.20
2022-09-11T08:48:56.865Z,6.03
2022-09-11T08:51:26.003Z,6.67
2022-09-11T08:53:54.543Z,6.40
2022-09-11T08:56:23.982Z,6.57
2022-09-11T08:59:30.036Z,6.50
2022-09-11T09:02:35.064Z,5.80
2022-09-11T09:05:29.404Z,5.57
2022-09-11T09:08:20.450Z,6.07
2022-09-11T09:10:57.110Z,4.77
2022-09-11T09:13:51.738Z,5.87
2022-09-11T09:16:34.552Z,5.90
2022-09-11T09:19:26.358Z,5.57
2022-09-11T09:22:14.953Z,6.00
2022-09-11T09:25:15.615Z,4.70
2022-09-11T09:28:00.362Z,4.50
2022-09-11T09:30:34.561Z,3.80
2022-09-11T09:33:12.660Z,4.97
2022-09-11T09:35:43.144Z,5.20
2022-09-11T09:38:13.133Z,4.90
2022-09-11T09:41:02.608Z,4.30
2022-09-11T09:43:32.447Z,5.63
2022-09-11T09:46:07.904Z,4.43
2022-09-11T09:48:39.711Z,4.33
2022-09-11T09:51:10.887Z,4.07
2022-09-11T09:53:53.548Z,5.10
2022-09-11T09:56:23.722Z,4.13
2022-09-11T09:59:03.175Z,4.40
2022-09-11T10:01:44.843Z,4.10
2022-09-11T10:04:27.013Z,3.70
2022-09-11T10:07:16.582Z,3.90
2022-09-11T10:09:51.519Z,4.10
2022-09-11T10:12:26.832Z,3.27
2022-09-11T10:14:59.616Z,3.03
2022-09-11T10:17:29.555Z,3.50
2022-09-11T10:20:12.333Z,3.80
2022-09-11T10:22:39.836Z,3.93
2022-09-11T10:25:12.358Z,3.47
2022-09-11T10:28:04.930Z,3.40
2022-09-11T10:30:33.822Z,3.50
2022-09-11T10:33:04.187Z,3.13
2022-09-11T10:35:32.115Z,2.90
2022-09-11T10:38:19.165Z,3.00
2022-09-11T10:41:02.128Z,2.40
2022-09-11T10:44:03.062Z,3.17
2022-09-11T10:46:40.379Z,3.60
2022-09-11T10:49:15.814Z,2.30
2022-09-11T10:51:56.956Z,2.20
2022-09-11T10:54:26.486Z,2.63
2022-09-11T10:57:21.158Z,2.67
2022-09-11T11:00:14.226Z,2.17
2022-09-11T11:03:06.312Z,2.80
2022-09-11T11:06:00.694Z,2.80
2022-09-11T11:08:42.533Z,2.37
2022-09-11T11:11:32.482Z,2.80
2022-09-11T11:14:17.049Z,2.97
2022-09-11T11:16:52.582Z,3.20
2022-09-11T11:19:28.171Z,3.03
2022-09-11T11:22:31.185Z,2.83
2022-09-11T11:25:31.061Z,2.97
2022-09-11T11:28:35.541Z,2.73
2022-09-11T11:31:26.490Z,3.03
2022-09-11T11:33:59.321Z,2.90
2022-09-11T11:36:41.453Z,2.60
2022-09-11T11:39:30.904Z,2.97
2022-09-11T11:42:17.349Z,2.97
2022-09-11T11:45:04.547Z,2.57
2022-09-11T11:47:38.299Z,2.40
2022-09-11T11:50:19.115Z,2.70
2022-09-11T11:53:01.182Z,2.50
2022-09-11T11:55:48.487Z,2.80
2022-09-11T11:58:26.791Z,2.90
2022-09-11T12:00:59.882Z,3.20
2022-09-11T12:03:36.345Z,2.90
2022-09-11T12:06:05.653Z,3.50
2022-09-11T12:08:32.594Z,2.60
2022-09-11T12:11:07.697Z,2.70
2022-09-11T12:13:36.841Z,2.77
2022-09-11T12:16:28.563Z,2.20
2022-09-11T12:19:05.792Z,1.83
2022-09-11T12:21:32.439Z,2.40
2022-09-11T12:23:59.889Z,3.10
2022-09-11T12:26:28.027Z,2.70
2022-09-11T12:29:13.981Z,2.07
2022-09-11T12:31:49.856Z,2.33
2022-09-11T12:34:38.824Z,2.10
2022-09-11T12:37:12.455Z,2.20
2022-09-11T12:39:53.686Z,2.50
2022-09-11T12:42:23.214Z,2.50
2022-09-11T12:44:49.890Z,2.00
2022-09-11T12:47:27.441Z,2.23
2022-09-11T12:50:21.833Z,2.70
2022-09-11T12:53:02.206Z,2.60
2022-09-11T12:55:53.064Z,2.70
2022-09-11T12:58:19.748Z,2.23
2022-09-11T13:00:49.518Z,2.37
2022-09-11T13:03:26.220Z,2.70
2022-09-11T13:05:56.957Z,2.50
2022-09-11T13:08:27.700Z,2.50
2022-09-11T13:11:15.484Z,2.70
2022-09-11T13:13:46.927Z,2.27
2022-09-11T13:16:19.153Z,2.20
2022-09-11T13:18:46.181Z,2.27
2022-09-11T13:21:18.155Z,2.17
2022-09-11T13:23:46.784Z,2.20
2022-09-11T13:26:18.743Z,2.10
2022-09-11T13:28:49.798Z,2.23
2022-09-11T13:31:41.290Z,2.37
2022-09-11T13:34:15.202Z,2.03
2022-09-11T13:36:42.227Z,2.33
2022-09-11T13:39:10.265Z,1.80
2022-09-11T13:41:44.363Z,2.20
2022-09-11T13:44:39.669Z,2.33
2022-09-11T13:47:26.362Z,2.97
2022-09-11T13:50:02.520Z,2.60
2022-09-11T13:52:34.176Z,2.60
2022-09-11T13:55:10.174Z,2.67
2022-09-11T13:57:50.845Z,2.60
2022-09-11T14:00:37.873Z,2.40
2022-09-11T14:03:06.971Z,2.90
2022-09-11T14:05:35.051Z,2.70
2022-09-11T14:08:09.495Z,3.00
2022-09-11T14:10:48.154Z,2.73
2022-09-11T14:13:43.739Z,2.40
2022-09-11T14:16:22.675Z,2.37
2022-09-11T14:19:06.669Z,2.50
2022-09-11T14:21:36.479Z,2.50
2022-09-11T14:24:07.188Z,2.83
2022-09-11T14:26:35.072Z,2.07
2022-09-11T14:29:22.960Z,2.60
2022-09-11T14:31:53.058Z,3.20
2022-09-11T14:34:29.301Z,2.40
2022-09-11T14:37:03.388Z,3.10
2022-09-11T14:39:48.539Z,2.77
2022-09-11T14:42:21.098Z,3.20
2022-09-11T14:44:48.341Z,3.03
2022-09-11T14:47:26.586Z,2.70
2022-09-11T14:49:55.355Z,3.50
2022-09-11T14:52:24.860Z,3.20
2022-09-11T14:54:52.024Z,3.20
2022-09-11T14:57:23.550Z,3.30
2022-09-11T14:59:51.018Z,2.67
2022-09-11T15:02:21.258Z,3.20
2022-09-11T15:04:48.966Z,2.70
2022-09-11T15:07:17.020Z,2.90
2022-09-11T15:09:43.766Z,2.90
2022-09-11T15:12:12.094Z,3.47
2022-09-11T15:14:57.964Z,3.00
2022-09-11T15:17:30.542Z,3.27
2022-09-11T15:20:00.261Z,3.30
2022-09-11T15:22:27.285Z,3.30
2022-09-11T15:24:54.504Z,3.70
2022-09-11T15:27:23.226Z,3.63
2022-09-11T15:29:49.956Z,3.50
2022-09-11T15:32:16.786Z,3.40
2022-09-11T15:34:45.043Z,3.10
2022-09-11T15:37:12.111Z,3.63
2022-09-11T15:39:39.129Z,3.33
2022-09-11T15:42:07.405Z,3.50
2022-09-11T15:44:36.166Z,3.70
2022-09-11T15:47:04.141Z,3.63
2022-09-11T15:49:31.719Z,4.10
2022-09-11T15:51:59.601Z,4.30
2022-09-11T15:54:27.083Z,3.50
2022-09-11T15:56:54.611Z,3.10
2022-09-11T15:59:21.657Z,3.70
2022-09-11T16:01:48.903Z,3.57
2022-09-11T16:04:20.224Z,3.50
2022-09-11T16:06:48.454Z,3.20
2022-09-11T16:09:20.596Z,3.20
2022-09-11T16:11:50.746Z,3.47
2022-09-11T16:14:27.261Z,3.00
2022-09-11T16:16:54.820Z,4.77
2022-09-11T16:19:27.471Z,6.20
2022-09-11T16:21:56.556Z,6.33
2022-09-11T16:24:25.601Z,7.30
2022-09-11T16:26:55.851Z,6.77
2022-09-11T16:29:24.492Z,6.40
2022-09-11T16:31:51.241Z,5.43
2022-09-11T16:34:17.953Z,7.93
2022-09-11T16:36:45.525Z,8.20
2022-09-11T16:39:14.716Z,6.10
2022-09-11T16:41:41.654Z,5.57
2022-09-11T16:44:10.809Z,4.20
2022-09-11T16:46:37.740Z,4.10
2022-09-11T16:49:05.913Z,4.50
2022-09-11T16:51:34.078Z,4.83
2022-09-11T16:54:02.021Z,3.83
2022-09-11T16:56:28.908Z,3.87
2022-09-11T16:58:55.781Z,3.73
2022-09-11T17:01:24.658Z,4.07
2022-09-11T17:03:53.380Z,4.00
2022-09-11T17:06:21.403Z,4.27
2022-09-11T17:08:50.937Z,4.30
2022-09-11T17:11:20.180Z,3.97
2022-09-11T17:13:47.834Z,4.13
2022-09-11T17:16:21.600Z,4.27
2022-09-11T17:18:51.167Z,4.93
2022-09-11T17:21:17.945Z,4.80
2022-09-11T17:23:44.914Z,5.13
2022-09-11T17:26:15.211Z,5.40
2022-09-11T17:28:43.047Z,4.47
2022-09-11T17:31:11.299Z,4.37
2022-09-11T17:33:40.172Z,5.63
2022-09-11T17:36:10.089Z,5.10
2022-09-11T17:38:38.207Z,4.63
2022-09-11T17:41:07.432Z,5.30
2022-09-11T17:43:36.160Z,6.47
2022-09-11T17:46:11.832Z,5.30
2022-09-11T17:48:39.823Z,5.73
2022-09-11T17:51:16.519Z,5.30
2022-09-11T17:53:46.267Z,6.47
2022-09-11T17:56:16.777Z,7.00
2022-09-11T17:58:45.166Z,7.30
2022-09-11T18:01:16.796Z,5.60
2022-09-11T18:03:44.301Z,6.00
2022-09-11T18:06:38.112Z,7.10
2022-09-11T18:09:13.707Z,6.57
2022-09-11T18:11:43.019Z,6.30
2022-09-11T18:14:11.619Z,5.87
2022-09-11T18:16:39.105Z,6.30
2022-09-11T18:19:06.552Z,6.63
2022-09-11T18:21:38.124Z,9.20
2022-09-11T18:24:06.576Z,8.70
2022-09-11T18:26:39.455Z,10.20
2022-09-11T18:29:10.040Z,9.17
2022-09-11T18:31:43.101Z,8.57
2022-09-11T18:34:12.307Z,6.60
2022-09-11T18:36:39.059Z,5.50
2022-09-11T18:39:06.051Z,5.70
2022-09-11T18:41:36.957Z,5.03
2022-09-11T18:44:07.330Z,7.80
2022-09-11T18:46:37.428Z,7.07
2022-09-11T18:49:05.214Z,6.20
2022-09-11T18:51:32.717Z,5.80
2022-09-11T18:54:00.121Z,4.80
2022-09-11T18:56:28.587Z,5.37
2022-09-11T18:58:56.124Z,5.67
2022-09-11T19:01:25.923Z,5.47
2022-09-11T19:03:53.489Z,5.27
2022-09-11T19:06:24.560Z,4.97
2022-09-11T19:08:52.832Z,5.60
2022-09-11T19:11:28.556Z,5.13
2022-09-11T19:14:01.917Z,5.50
2022-09-11T19:16:28.945Z,5.90
2022-09-11T19:18:55.786Z,5.90
2022-09-11T19:21:23.968Z,5.67
2022-09-11T19:23:57.613Z,6.40
2022-09-11T19:26:30.527Z,5.20
2022-09-11T19:28:57.540Z,5.60
2022-09-11T19:31:28.419Z,5.57
2022-09-11T19:33:56.762Z,5.00
2022-09-11T19:36:27.985Z,5.50
2022-09-11T19:39:01.284Z,5.07
2022-09-11T19:41:31.326Z,5.70
2022-09-11T19:44:00.366Z,5.10
2022-09-11T19:46:28.460Z,4.90
2022-09-11T19:48:57.757Z,5.43
2022-09-11T19:51:27.973Z,5.70
2022-09-11T19:53:56.804Z,4.97
2022-09-11T19:56:25.074Z,5.37
2022-09-11T19:58:52.950Z,5.47
2022-09-11T20:01:22.655Z,5.67
2022-09-11T20:03:50.965Z,5.30
2022-09-11T20:06:18.616Z,5.80
2022-09-11T20:08:47.320Z,5.93
2022-09-11T20:11:17.231Z,5.20
2022-09-11T20:13:44.287Z,5.17
2022-09-11T20:16:17.539Z,4.90
2022-09-11T20:18:44.640Z,5.80
2022-09-11T20:21:15.488Z,5.57
2022-09-11T20:23:43.640Z,6.00
2022-09-11T20:26:17.009Z,5.80
2022-09-11T20:28:47.898Z,5.77
2022-09-11T20:31:20.812Z,4.97
2022-09-11T20:33:51.203Z,4.60
2022-09-11T20:36:19.621Z,5.37
2022-09-11T20:38:54.422Z,5.50
2022-09-11T20:41:23.591Z,5.80
2022-09-11T20:43:50.631Z,6.07
2022-09-11T20:46:18.330Z,5.63
2022-09-11T20:48:48.823Z,5.17
2022-09-11T20:51:15.561Z,5.40
2022-09-11T20:53:45.584Z,4.80
2022-09-11T20:56:15.533Z,5.53
2022-09-11T20:58:42.671Z,5.93
2022-09-11T21:01:13.624Z,5.77
2022-09-11T21:03:48.673Z,5.37
2022-09-11T21:06:15.488Z,6.00
2022-09-11T21:08:44.292Z,5.50
2022-09-11T21:11:11.952Z,5.30
2022-09-11T21:13:40.352Z,5.73
2022-09-11T21:16:12.936Z,6.23
2022-09-11T21:18:44.644Z,5.53
2022-09-11T21:21:11.351Z,5.30
2022-09-11T21:23:38.100Z,6.50
2022-09-11T21:26:09.551Z,5.70
2022-09-11T21:28:36.409Z,5.80
2022-09-11T21:31:04.064Z,5.53
2022-09-11T21:33:32.954Z,5.97
2022-09-11T21:35:59.997Z,5.70
2022-09-11T21:38:29.408Z,5.83
2022-09-11T21:40:58.227Z,5.93
2022-09-11T21:43:25.284Z,5.40
2022-09-11T21:45:52.059Z,5.47
2022-09-11T21:48:18.781Z,4.90
2022-09-11T21:50:45.585Z,5.63
2022-09-11T21:53:12.428Z,5.87
2022-09-11T21:55:41.021Z,5.47
2022-09-11T21:58:07.944Z,5.83
2022-09-11T22:00:42.008Z,5.47
2022-09-11T22:03:10.919Z,5.30
2022-09-11T22:05:42.954Z,5.77
2022-09-11T22:08:10.629Z,5.80
2022-09-11T22:10:45.785Z,5.50
2022-09-11T22:13:12.706Z,6.23
2022-09-11T22:15:44.315Z,5.33
2022-09-11T22:18:11.215Z,5.43
2022-09-11T22:20:38.783Z,5.67
2022-09-11T22:23:06.259Z,5.83
2022-09-11T22:25:36.625Z,5.93
2022-09-11T22:28:04.697Z,5.43
2022-09-11T22:30:31.764Z,5.03
2022-09-11T22:32:59.772Z,5.50
2022-09-11T22:35:27.358Z,5.33
2022-09-11T22:37:54.508Z,4.87
2022-09-11T22:40:21.286Z,5.03
2022-09-11T22:42:48.320Z,5.07
2022-09-11T22:45:15.049Z,5.30
2022-09-11T22:47:41.763Z,5.33
2022-09-11T22:50:08.718Z,5.00
2022-09-11T22:52:37.260Z,5.10
2022-09-11T22:55:05.749Z,5.10
2022-09-11T22:57:34.990Z,5.70
2022-09-11T23:00:02.467Z,6.13
2022-09-11T23:02:29.191Z,6.20
2022-09-11T23:05:14.431Z,5.80
2022-09-11T23:07:41.488Z,5.70
2022-09-11T23:10:09.695Z,5.20
2022-09-11T23:12:37.324Z,5.47
2022-09-11T23:15:04.449Z,5.30
2022-09-11T23:17:31.247Z,5.60
2022-09-11T23:19:58.076Z,5.10
2022-09-11T23:22:27.041Z,5.70
2022-09-11T23:24:54.504Z,5.90
2022-09-11T23:27:21.604Z,5.63
2022-09-11T23:29:48.315Z,5.20
2022-09-11T23:32:15.036Z,5.73
2022-09-11T23:34:41.735Z,4.23
2022-09-11T23:37:08.426Z,5.50
2022-09-11T23:39:35.233Z,5.10
2022-09-11T23:42:01.983Z,5.13
2022-09-11T23:44:28.690Z,5.37
2022-09-11T23:46:55.374Z,4.63
2022-09-11T23:49:22.081Z,5.90
2022-09-11T23:51:49.130Z,5.10
2022-09-11T23:54:16.417Z,5.13
2022-09-11T23:56:43.294Z,5.43
2022-09-11T23:59:10.095Z,5.00
